Time;durP1;ratioP1;P1;durP2;ratioP2;P2;SDS_P1;SDS_P2;PMS_P1;PMS_P2;Temp;Humidity;BMP_temperature;BMP_pressure;BME280_temperature;BME280_humidity;BME280_pressure;Samples;Min_cycle;Max_cycle;Signal;HPM_P1;HPM_P2
2023/12/31 00:01:38;;;;;;;5.23;3.23;;;9.30;99.90;;;;;;5111375;27;20431;-89
2023/12/31 00:04:03;;;;;;;6.05;2.97;;;9.10;99.90;;;;;;5112977;27;20909;-90
2023/12/31 00:06:29;;;;;;;5.53;3.30;;;9.10;99.90;;;;;;5111014;27;20771;-91
2023/12/31 00:08:55;;;;;;;5.57;3.60;;;9.10;99.90;;;;;;5112621;27;20881;-90
2023/12/31 00:11:21;;;;;;;6.45;3.30;;;9.10;99.90;;;;;;5112749;27;20931;-90
2023/12/31 00:13:47;;;;;;;5.22;3.22;;;9.20;99.90;;;;;;5119507;27;20393;-91
2023/12/31 00:16:14;;;;;;;4.55;2.92;;;9.20;99.90;;;;;;5130346;27;20417;-89
2023/12/31 00:18:40;;;;;;;4.97;2.95;;;9.20;99.90;;;;;;5111392;27;20518;-90
2023/12/31 00:21:05;;;;;;;4.40;2.97;;;9.20;99.90;;;;;;5112925;27;20525;-89
2023/12/31 00:23:31;;;;;;;5.30;2.72;;;9.20;99.90;;;;;;5127910;27;20403;-88
2023/12/31 00:25:57;;;;;;;6.30;3.17;;;9.60;99.90;;;;;;5112000;27;20422;-90
2023/12/31 00:28:23;;;;;;;4.57;2.60;;;9.20;99.90;;;;;;5111538;27;20456;-90
2023/12/31 00:30:48;;;;;;;4.43;2.85;;;9.30;99.90;;;;;;5128891;27;20807;-87
2023/12/31 00:33:14;;;;;;;4.55;2.70;;;9.30;99.90;;;;;;5112458;27;20399;-90
2023/12/31 00:35:39;;;;;;;4.03;3.00;;;9.30;99.90;;;;;;5110430;27;20548;-92
2023/12/31 00:38:05;;;;;;;4.70;2.78;;;9.30;99.90;;;;;;5112303;27;20399;-88
2023/12/31 00:40:31;;;;;;;3.75;2.72;;;9.20;99.90;;;;;;5110159;27;20418;-89
2023/12/31 00:42:56;;;;;;;5.47;2.70;;;9.20;99.90;;;;;;5112366;27;20434;-90
2023/12/31 00:45:22;;;;;;;5.22;2.47;;;9.20;99.90;;;;;;5110735;27;20423;-90
2023/12/31 00:47:47;;;;;;;4.67;2.50;;;9.20;99.90;;;;;;5111997;27;20414;-90
2023/12/31 00:50:13;;;;;;;3.60;2.60;;;9.20;99.90;;;;;;5111939;27;20469;-91
2023/12/31 00:52:39;;;;;;;4.25;2.58;;;9.10;99.90;;;;;;5127518;27;20906;-91
2023/12/31 00:55:05;;;;;;;3.40;2.53;;;9.10;99.90;;;;;;5129594;27;20402;-89
2023/12/31 00:57:31;;;;;;;5.35;2.80;;;9.10;99.90;;;;;;5130327;27;20434;-89
2023/12/31 00:59:56;;;;;;;4.00;2.77;;;9.10;99.90;;;;;;5132434;27;20401;-92
2023/12/31 01:02:22;;;;;;;3.53;2.17;;;9.10;99.90;;;;;;5119495;27;20421;-93
2023/12/31 01:04:48;;;;;;;4.22;2.67;;;9.30;99.90;;;;;;5128899;27;20506;-90
2023/12/31 01:07:14;;;;;;;4.25;2.45;;;9.10;99.90;;;;;;5111251;27;20395;-89
2023/12/31 01:09:40;;;;;;;3.33;2.13;;;9.00;99.90;;;;;;5128024;27;20407;-91
2023/12/31 01:12:06;;;;;;;4.70;2.57;;;9.00;99.90;;;;;;5111459;27;20399;-89
2023/12/31 01:14:34;;;;;;;5.15;2.60;;;9.00;99.90;;;;;;5127058;27;20890;-91
2023/12/31 01:17:00;;;;;;;3.63;2.53;;;9.00;99.90;;;;;;5112241;27;20395;-89
2023/12/31 01:19:26;;;;;;;3.67;2.35;;;9.00;99.90;;;;;;5109466;27;20475;-91
2023/12/31 01:21:51;;;;;;;4.13;2.40;;;8.80;99.90;;;;;;5128097;27;20449;-90
2023/12/31 01:24:17;;;;;;;4.00;2.20;;;8.70;99.90;;;;;;5110292;27;20467;-89
2023/12/31 01:26:43;;;;;;;4.88;2.40;;;9.10;99.90;;;;;;5110933;27;20407;-91
2023/12/31 01:29:09;;;;;;;4.00;2.53;;;9.50;99.90;;;;;;5111327;28;20398;-90
2023/12/31 01:31:34;;;;;;;2.92;2.20;;;9.10;99.90;;;;;;5109279;27;20798;-90
2023/12/31 01:34:00;;;;;;;2.80;1.87;;;8.80;99.90;;;;;;5111399;27;20439;-90
2023/12/31 01:36:26;;;;;;;4.20;1.90;;;9.10;99.90;;;;;;5109662;27;20401;-90
2023/12/31 01:38:51;;;;;;;3.50;1.92;;;9.00;99.90;;;;;;5111436;27;20406;-93
2023/12/31 01:41:17;;;;;;;3.60;2.00;;;8.80;99.90;;;;;;5109952;27;20410;-88
2023/12/31 01:43:43;;;;;;;3.10;1.73;;;9.00;99.90;;;;;;5111079;28;20904;-91
2023/12/31 01:46:11;;;;;;;3.30;1.65;;;8.80;99.90;;;;;;5110467;27;20432;-90
2023/12/31 01:48:37;;;;;;;3.70;1.57;;;8.90;99.90;;;;;;5109772;28;20881;-90
2023/12/31 01:51:03;;;;;;;2.97;1.45;;;8.90;99.90;;;;;;5111013;28;20402;-89
2023/12/31 01:53:30;;;;;;;4.28;1.40;;;8.80;99.90;;;;;;5118094;27;21082;-89
2023/12/31 01:55:57;;;;;;;3.17;1.35;;;9.10;99.90;;;;;;5131803;27;20393;-90
2023/12/31 01:58:23;;;;;;;3.03;1.05;;;9.20;99.90;;;;;;5130226;27;20440;-88
2023/12/31 02:00:49;;;;;;;2.65;1.00;;;8.80;99.90;;;;;;5131232;27;20846;-91
2023/12/31 02:03:15;;;;;;;2.63;1.10;;;9.00;99.90;;;;;;5130808;27;20389;-89
2023/12/31 02:05:42;;;;;;;2.90;1.07;;;9.20;99.90;;;;;;5147881;27;20450;-89
2023/12/31 02:08:07;;;;;;;3.58;1.17;;;8.80;99.90;;;;;;5131207;27;20405;-90
2023/12/31 02:10:33;;;;;;;2.93;1.00;;;8.80;99.90;;;;;;5130522;27;20396;-91
2023/12/31 02:13:00;;;;;;;2.70;0.90;;;9.30;99.90;;;;;;5131899;27;21006;-90
2023/12/31 02:15:33;;;;;;;3.35;0.88;;;8.70;99.90;;;;;;5146706;27;20469;-94
2023/12/31 02:18:00;;;;;;;3.30;1.10;;;8.70;99.90;;;;;;5131540;27;20444;-90
2023/12/31 02:20:28;;;;;;;3.33;1.00;;;8.70;99.90;;;;;;5129888;27;20393;-91
2023/12/31 02:22:53;;;;;;;2.22;0.80;;;8.70;99.90;;;;;;5130870;27;20895;-90
2023/12/31 02:25:23;;;;;;;2.53;1.05;;;8.50;99.90;;;;;;5130858;27;20435;-90
2023/12/31 02:27:49;;;;;;;1.83;0.88;;;8.50;99.90;;;;;;5129543;27;20404;-90
2023/12/31 02:30:15;;;;;;;3.00;1.00;;;9.00;99.90;;;;;;5131472;27;20385;-91
2023/12/31 02:32:41;;;;;;;2.43;1.03;;;8.60;99.90;;;;;;5129695;27;20401;-89
2023/12/31 02:35:07;;;;;;;2.37;1.00;;;8.80;99.90;;;;;;5131433;27;20471;-90
2023/12/31 02:37:32;;;;;;;3.78;1.10;;;8.50;99.90;;;;;;5130127;27;20948;-89
2023/12/31 02:39:58;;;;;;;2.23;0.90;;;8.60;99.90;;;;;;5130905;27;20439;-93
2023/12/31 02:42:23;;;;;;;2.30;0.93;;;8.70;99.90;;;;;;5131134;27;20796;-90
2023/12/31 02:44:49;;;;;;;2.40;0.82;;;8.60;99.90;;;;;;5129888;27;21019;-91
2023/12/31 02:47:15;;;;;;;2.15;0.90;;;8.50;99.90;;;;;;5131552;27;20393;-90
2023/12/31 02:49:40;;;;;;;1.73;0.70;;;8.60;99.90;;;;;;5129222;27;20405;-92
2023/12/31 02:52:06;;;;;;;2.05;0.68;;;8.90;99.90;;;;;;5131699;27;20393;-92
2023/12/31 02:54:31;;;;;;;2.50;0.90;;;8.40;99.90;;;;;;5129649;27;20484;-91
2023/12/31 02:56:58;;;;;;;2.20;0.60;;;8.40;99.90;;;;;;5148140;27;20468;-90
2023/12/31 02:59:24;;;;;;;2.03;0.80;;;8.60;99.90;;;;;;5130385;27;20984;-90
2023/12/31 03:01:50;;;;;;;1.50;0.43;;;8.40;99.90;;;;;;5133599;27;20476;-89
2023/12/31 03:04:16;;;;;;;2.85;0.75;;;8.40;99.90;;;;;;5131072;27;20467;-90
2023/12/31 03:06:41;;;;;;;2.60;0.70;;;8.50;99.90;;;;;;5112300;27;20802;-89
2023/12/31 03:09:07;;;;;;;1.88;0.60;;;8.50;99.90;;;;;;5114428;27;20838;-90
2023/12/31 03:11:34;;;;;;;2.58;0.60;;;8.50;99.90;;;;;;5111964;27;20391;-92
2023/12/31 03:14:00;;;;;;;2.17;0.40;;;8.50;99.90;;;;;;5114456;27;20461;-90
2023/12/31 03:16:25;;;;;;;1.97;0.40;;;8.50;99.90;;;;;;5112541;27;20414;-91
2023/12/31 03:18:54;;;;;;;1.60;0.40;;;8.70;99.90;;;;;;5113256;27;20391;-90
2023/12/31 03:21:20;;;;;;;1.77;0.40;;;8.90;99.90;;;;;;5113672;27;20418;-89
2023/12/31 03:23:46;;;;;;;2.08;0.50;;;8.60;99.90;;;;;;5112198;27;20407;-89
2023/12/31 03:26:12;;;;;;;1.48;0.40;;;8.60;99.90;;;;;;5114253;27;20473;-90
2023/12/31 03:28:37;;;;;;;1.73;0.40;;;8.80;99.90;;;;;;5111918;27;20438;-93
2023/12/31 03:31:03;;;;;;;1.80;0.30;;;8.70;99.90;;;;;;5113554;27;20414;-89
2023/12/31 03:33:30;;;;;;;1.45;0.35;;;8.70;99.90;;;;;;5111798;27;20410;-92
2023/12/31 03:35:55;;;;;;;1.70;0.30;;;8.70;99.90;;;;;;5113432;27;20394;-90
2023/12/31 03:38:21;;;;;;;2.30;0.60;;;8.60;99.90;;;;;;5130038;27;20407;-91
2023/12/31 03:40:47;;;;;;;1.80;0.40;;;8.90;99.90;;;;;;5132466;27;20465;-90
2023/12/31 03:43:13;;;;;;;2.50;0.40;;;8.60;99.90;;;;;;5133960;27;20411;-89
2023/12/31 03:45:38;;;;;;;1.63;0.40;;;8.70;99.90;;;;;;5132032;27;20439;-91
2023/12/31 03:48:05;;;;;;;2.15;0.32;;;8.70;99.90;;;;;;5134161;27;20404;-90
2023/12/31 03:50:30;;;;;;;1.48;0.40;;;8.70;99.90;;;;;;5132093;27;20889;-90
2023/12/31 03:52:56;;;;;;;1.10;0.30;;;8.90;99.90;;;;;;5113927;27;20437;-93
2023/12/31 03:55:23;;;;;;;1.63;0.40;;;8.70;99.90;;;;;;5112027;27;20395;-89
2023/12/31 03:57:49;;;;;;;2.13;0.43;;;8.60;99.90;;;;;;5112646;27;20493;-91
2023/12/31 04:00:16;;;;;;;2.10;0.40;;;8.70;99.90;;;;;;5112538;27;20464;-90
2023/12/31 04:02:41;;;;;;;0.88;0.45;;;8.70;99.90;;;;;;5111319;27;20443;-90
2023/12/31 04:05:07;;;;;;;1.67;0.40;;;8.70;99.90;;;;;;5112847;27;20908;-92
2023/12/31 04:07:33;;;;;;;1.92;0.47;;;8.70;99.90;;;;;;5111230;27;20474;-91
2023/12/31 04:10:00;;;;;;;2.35;0.70;;;8.80;99.90;;;;;;5112878;27;20418;-92
2023/12/31 04:12:26;;;;;;;2.55;0.57;;;8.90;99.90;;;;;;5110745;27;20904;-89
2023/12/31 04:14:51;;;;;;;2.20;0.60;;;8.80;99.90;;;;;;5112577;27;20411;-90
2023/12/31 04:17:18;;;;;;;1.40;0.65;;;8.70;99.90;;;;;;5112407;27;20398;-90
2023/12/31 04:19:44;;;;;;;2.00;0.60;;;8.80;99.90;;;;;;5111674;27;20497;-91
2023/12/31 04:22:10;;;;;;;1.87;0.63;;;8.90;99.90;;;;;;5112409;27;20442;-89
2023/12/31 04:24:35;;;;;;;2.85;0.90;;;8.80;99.90;;;;;;5110822;27;20484;-92
2023/12/31 04:27:01;;;;;;;2.08;0.80;;;8.80;99.90;;;;;;5115412;27;20417;-90
2023/12/31 04:29:27;;;;;;;2.90;0.93;;;8.70;99.90;;;;;;5131435;27;20895;-88
2023/12/31 04:31:52;;;;;;;2.60;1.00;;;8.50;99.90;;;;;;5132998;27;20409;-91
2023/12/31 04:34:18;;;;;;;2.72;1.00;;;8.90;99.90;;;;;;5132054;27;20899;-92
2023/12/31 04:36:45;;;;;;;2.43;1.30;;;8.80;99.90;;;;;;5132354;27;20409;-90
2023/12/31 04:39:11;;;;;;;3.37;1.27;;;8.90;99.90;;;;;;5133019;27;20473;-88
2023/12/31 04:41:37;;;;;;;3.53;1.70;;;8.70;99.90;;;;;;5131251;27;20903;-92
2023/12/31 04:44:03;;;;;;;3.10;1.55;;;8.70;99.90;;;;;;5133027;27;20405;-90
2023/12/31 04:46:29;;;;;;;3.40;1.63;;;8.70;99.90;;;;;;5131123;27;20884;-92
2023/12/31 04:48:55;;;;;;;3.30;1.67;;;8.70;99.90;;;;;;5132690;27;20440;-89
2023/12/31 04:51:27;;;;;;;4.22;1.55;;;8.60;99.90;;;;;;5131331;27;20393;-91
2023/12/31 04:53:54;;;;;;;3.67;1.70;;;8.80;99.90;;;;;;5132422;27;20429;-92
2023/12/31 04:56:24;;;;;;;2.70;1.60;;;8.70;99.90;;;;;;5132137;27;20401;-93
2023/12/31 04:58:55;;;;;;;3.42;1.73;;;8.70;99.90;;;;;;5114720;27;20792;-91
2023/12/31 05:01:20;;;;;;;2.80;1.30;;;8.70;99.90;;;;;;5129127;27;20897;-91
2023/12/31 05:03:47;;;;;;;2.40;1.15;;;8.70;99.90;;;;;;5110158;27;20444;-92
2023/12/31 05:06:16;;;;;;;2.33;1.05;;;8.90;99.90;;;;;;5111646;27;20419;-90
2023/12/31 05:08:45;;;;;;;2.90;1.20;;;8.90;99.90;;;;;;5109940;27;20403;-93
2023/12/31 05:11:12;;;;;;;3.05;1.02;;;8.80;99.90;;;;;;5111003;27;20395;-90
2023/12/31 05:13:39;;;;;;;2.50;0.90;;;8.70;99.90;;;;;;5111695;27;20399;-90
2023/12/31 05:16:13;;;;;;;2.60;1.00;;;8.80;99.90;;;;;;5109761;27;20398;-89
2023/12/31 05:18:53;;;;;;;2.42;1.10;;;8.80;99.90;;;;;;5112104;27;20406;-90
2023/12/31 05:21:19;;;;;;;3.25;1.40;;;8.70;99.90;;;;;;5122359;27;20394;-89
2023/12/31 05:23:45;;;;;;;1.83;0.82;;;8.80;99.90;;;;;;5127636;27;20471;-90
2023/12/31 05:26:11;;;;;;;2.28;0.95;;;8.80;99.90;;;;;;5110216;27;20574;-90
2023/12/31 05:28:37;;;;;;;2.60;1.30;;;8.80;99.90;;;;;;5110746;27;20410;-90
2023/12/31 05:31:03;;;;;;;2.03;1.08;;;8.80;99.90;;;;;;5111197;27;20391;-90
2023/12/31 05:33:28;;;;;;;3.40;1.17;;;8.80;99.90;;;;;;5109810;27;20960;-92
2023/12/31 05:35:54;;;;;;;3.03;1.17;;;8.80;99.90;;;;;;5111756;27;20885;-91
2023/12/31 05:38:20;;;;;;;2.30;1.10;;;8.80;99.90;;;;;;5108922;27;20438;-90
2023/12/31 05:40:45;;;;;;;2.10;1.00;;;8.80;99.90;;;;;;5111575;27;20403;-90
2023/12/31 05:43:11;;;;;;;2.25;1.02;;;9.00;99.90;;;;;;5110189;27;20490;-89
2023/12/31 05:45:37;;;;;;;2.50;1.00;;;8.80;99.90;;;;;;5110722;28;20419;-92
2023/12/31 05:48:03;;;;;;;2.72;1.00;;;8.70;99.90;;;;;;5111084;28;20428;-91
2023/12/31 05:50:29;;;;;;;2.47;1.05;;;8.90;99.90;;;;;;5109636;28;20451;-92
2023/12/31 05:52:55;;;;;;;2.90;1.42;;;9.30;99.90;;;;;;5126347;27;20408;-91
2023/12/31 05:55:20;;;;;;;3.23;1.77;;;8.80;99.90;;;;;;5130281;27;20381;-90
2023/12/31 05:57:46;;;;;;;3.10;1.87;;;9.10;99.90;;;;;;5132162;27;20424;-92
2023/12/31 06:00:13;;;;;;;2.70;1.10;;;8.80;99.90;;;;;;5130083;27;20507;-92
2023/12/31 06:02:40;;;;;;;2.60;1.23;;;8.90;99.90;;;;;;5131032;27;20401;-92
2023/12/31 06:05:06;;;;;;;2.90;1.53;;;8.90;99.90;;;;;;5130444;27;20424;-89
2023/12/31 06:07:32;;;;;;;1.85;1.00;;;8.90;99.90;;;;;;5148181;27;20480;-91
2023/12/31 06:09:58;;;;;;;2.05;1.20;;;8.90;99.90;;;;;;5131878;27;20505;-89
2023/12/31 06:12:23;;;;;;;1.90;1.30;;;8.90;99.90;;;;;;5128984;27;20991;-92
2023/12/31 06:14:49;;;;;;;2.10;1.00;;;8.90;99.90;;;;;;5111243;28;20411;-90
2023/12/31 06:17:15;;;;;;;2.25;1.17;;;8.90;99.90;;;;;;5126310;28;20502;-91
2023/12/31 06:19:40;;;;;;;2.65;1.30;;;9.10;99.90;;;;;;5111145;28;20832;-92
2023/12/31 06:22:06;;;;;;;3.30;1.10;;;9.10;99.90;;;;;;5109140;27;20475;-89
2023/12/31 06:24:32;;;;;;;2.67;1.20;;;9.00;99.90;;;;;;5109956;28;20476;-91
2023/12/31 06:26:59;;;;;;;3.13;1.47;;;8.90;99.90;;;;;;5111052;28;20395;-89
2023/12/31 06:29:24;;;;;;;3.03;1.38;;;9.00;99.90;;;;;;5109201;28;20403;-92
2023/12/31 06:31:50;;;;;;;3.30;1.40;;;9.20;99.90;;;;;;5110650;28;20464;-89
2023/12/31 06:34:16;;;;;;;2.50;1.45;;;9.00;99.90;;;;;;5093769;27;20406;-92
2023/12/31 06:36:42;;;;;;;2.77;1.40;;;9.10;99.90;;;;;;5114260;27;20666;-90
2023/12/31 06:39:10;;;;;;;2.53;1.50;;;9.30;99.90;;;;;;5113079;27;20471;-93
2023/12/31 06:41:36;;;;;;;3.10;1.35;;;9.10;99.90;;;;;;5114364;27;20433;-93
2023/12/31 06:44:02;;;;;;;2.88;1.40;;;9.10;99.90;;;;;;5113464;27;20399;-93
2023/12/31 06:46:27;;;;;;;2.55;1.20;;;9.10;99.90;;;;;;5113633;27;20486;-91
2023/12/31 06:48:54;;;;;;;2.10;1.42;;;9.00;99.90;;;;;;5114452;27;20402;-91
2023/12/31 06:51:20;;;;;;;2.95;1.00;;;8.90;99.90;;;;;;5112955;27;20425;-90
2023/12/31 06:53:46;;;;;;;3.17;1.20;;;9.00;99.90;;;;;;5114241;27;20398;-90
2023/12/31 06:56:12;;;;;;;2.10;1.00;;;9.00;99.90;;;;;;5112422;27;20407;-90
2023/12/31 06:58:38;;;;;;;2.72;1.23;;;9.30;99.90;;;;;;5114462;27;20520;-91
2023/12/31 07:01:04;;;;;;;2.35;1.27;;;8.80;99.90;;;;;;5112790;27;20402;-91
2023/12/31 07:03:31;;;;;;;3.05;1.20;;;9.10;99.90;;;;;;5113973;27;20401;-93
2023/12/31 07:05:57;;;;;;;2.95;1.42;;;8.90;99.90;;;;;;5133696;27;20512;-90
2023/12/31 07:08:23;;;;;;;2.20;1.00;;;9.00;99.90;;;;;;5117700;27;20399;-92
2023/12/31 07:10:50;;;;;;;2.40;1.20;;;8.90;99.90;;;;;;5114681;27;20912;-90
2023/12/31 07:13:16;;;;;;;3.25;1.30;;;9.10;99.90;;;;;;5111981;27;20460;-93
2023/12/31 07:15:46;;;;;;;2.72;1.30;;;8.90;99.90;;;;;;5113818;27;20395;-93
2023/12/31 07:18:11;;;;;;;3.90;1.50;;;9.00;99.90;;;;;;5129583;27;20394;-91
2023/12/31 07:20:37;;;;;;;3.38;1.70;;;8.90;99.90;;;;;;5130736;27;20394;-90
2023/12/31 07:23:04;;;;;;;3.40;1.63;;;9.00;99.90;;;;;;5112976;27;21007;-92
2023/12/31 07:25:31;;;;;;;3.40;1.40;;;8.90;99.90;;;;;;5112648;27;20459;-91
2023/12/31 07:27:57;;;;;;;2.55;1.30;;;8.90;99.90;;;;;;5130852;27;20404;-94
2023/12/31 07:30:23;;;;;;;2.20;1.35;;;8.70;99.90;;;;;;5112096;27;20844;-92
2023/12/31 07:32:49;;;;;;;3.30;1.50;;;9.20;99.90;;;;;;5113978;27;20499;-93
2023/12/31 07:35:14;;;;;;;2.80;1.63;;;9.10;99.90;;;;;;5111834;27;20387;-92
2023/12/31 07:37:40;;;;;;;2.65;1.65;;;8.90;99.90;;;;;;5113511;27;20401;-93
2023/12/31 07:40:13;;;;;;;2.45;1.30;;;9.10;99.90;;;;;;5112390;27;20923;-89
2023/12/31 07:42:39;;;;;;;2.90;1.87;;;8.80;99.90;;;;;;5112680;27;20437;-92
2023/12/31 07:45:05;;;;;;;2.97;1.57;;;8.80;99.90;;;;;;5112872;28;20860;-89
2023/12/31 07:47:35;;;;;;;2.70;1.83;;;8.80;99.90;;;;;;5111462;27;20409;-92
2023/12/31 07:50:05;;;;;;;2.55;1.73;;;8.90;99.90;;;;;;5113653;27;20424;-94
2023/12/31 07:52:31;;;;;;;3.20;1.90;;;8.80;99.90;;;;;;5128286;27;20801;-91
2023/12/31 07:54:56;;;;;;;2.43;1.90;;;9.00;99.90;;;;;;5113584;27;20485;-89
2023/12/31 07:57:22;;;;;;;2.85;1.98;;;9.00;99.90;;;;;;5111948;27;20464;-90
2023/12/31 07:59:47;;;;;;;3.13;1.80;;;8.90;99.90;;;;;;5112568;27;20796;-91
2023/12/31 08:02:13;;;;;;;3.50;1.87;;;8.80;99.90;;;;;;5112410;27;20841;-90
2023/12/31 08:04:39;;;;;;;2.58;1.77;;;8.80;99.90;;;;;;5111557;27;20423;-90
2023/12/31 08:07:04;;;;;;;2.58;1.80;;;8.70;99.90;;;;;;5129996;27;20446;-93
2023/12/31 08:09:30;;;;;;;2.53;1.70;;;9.10;99.90;;;;;;5111053;27;20403;-92
2023/12/31 08:11:56;;;;;;;3.00;1.80;;;9.00;99.90;;;;;;5113031;27;20402;-88
2023/12/31 08:14:22;;;;;;;2.67;1.63;;;8.80;99.90;;;;;;5111211;27;20386;-91
2023/12/31 08:16:48;;;;;;;2.60;1.70;;;9.10;99.90;;;;;;5129563;27;20391;-88
2023/12/31 08:19:14;;;;;;;3.50;2.00;;;8.90;99.90;;;;;;5112084;27;20830;-89
2023/12/31 08:21:40;;;;;;;2.50;1.80;;;8.90;99.90;;;;;;5111099;27;20924;-91
2023/12/31 08:24:06;;;;;;;3.17;1.70;;;8.90;99.90;;;;;;5112607;27;20481;-91
2023/12/31 08:26:32;;;;;;;2.67;1.63;;;8.90;99.90;;;;;;5111093;27;20898;-91
2023/12/31 08:28:59;;;;;;;2.80;1.60;;;8.90;99.90;;;;;;5112732;27;20430;-90
2023/12/31 08:31:25;;;;;;;3.47;1.70;;;8.80;99.90;;;;;;5110799;27;20387;-89
2023/12/31 08:33:50;;;;;;;2.33;1.80;;;9.10;99.90;;;;;;5112096;27;20418;-91
2023/12/31 08:36:17;;;;;;;3.05;1.75;;;9.00;99.90;;;;;;5110925;27;20398;-91
2023/12/31 08:38:43;;;;;;;3.67;2.00;;;9.00;99.90;;;;;;5111723;27;20451;-93
2023/12/31 08:41:09;;;;;;;3.25;2.25;;;9.00;99.90;;;;;;5112299;27;20402;-93
2023/12/31 08:43:35;;;;;;;3.85;2.35;;;9.00;99.90;;;;;;5110668;27;21095;-92
2023/12/31 08:46:01;;;;;;;3.90;2.47;;;9.10;99.90;;;;;;5129343;27;20445;-90
2023/12/31 08:48:26;;;;;;;4.17;2.93;;;9.30;99.90;;;;;;5110102;27;20451;-90
2023/12/31 08:50:52;;;;;;;4.10;2.83;;;9.10;99.90;;;;;;5129420;27;20401;-89
2023/12/31 08:53:19;;;;;;;3.78;2.25;;;9.30;99.90;;;;;;5110360;27;20449;-89
2023/12/31 08:55:44;;;;;;;4.82;2.50;;;9.30;99.90;;;;;;5111015;27;21459;-92
2023/12/31 08:58:12;;;;;;;4.80;2.22;;;9.20;99.90;;;;;;5108823;27;20482;-91
2023/12/31 09:00:38;;;;;;;3.22;1.77;;;9.30;99.90;;;;;;5125824;27;20407;-90
2023/12/31 09:03:04;;;;;;;3.40;2.20;;;9.20;99.90;;;;;;5127753;27;20406;-90
2023/12/31 09:05:30;;;;;;;3.00;1.97;;;9.30;99.90;;;;;;5126946;27;20422;-91
2023/12/31 09:07:56;;;;;;;2.77;1.53;;;9.40;99.90;;;;;;5111440;27;20464;-92
2023/12/31 09:10:21;;;;;;;4.15;1.92;;;9.40;99.90;;;;;;5110421;27;20403;-89
2023/12/31 09:12:47;;;;;;;2.50;1.67;;;9.50;99.90;;;;;;5111958;27;20440;-91
2023/12/31 09:15:13;;;;;;;2.47;1.55;;;9.50;99.90;;;;;;5127132;27;20414;-91
2023/12/31 09:17:39;;;;;;;2.47;1.73;;;9.50;99.90;;;;;;5111136;27;20882;-89
2023/12/31 09:20:06;;;;;;;2.60;1.60;;;9.50;99.90;;;;;;5126808;27;20407;-90
2023/12/31 09:22:35;;;;;;;3.42;2.13;;;9.50;99.90;;;;;;5106160;28;20910;-91
2023/12/31 09:25:01;;;;;;;2.38;1.80;;;9.80;99.90;;;;;;5091213;28;20934;-89
2023/12/31 09:27:29;;;;;;;3.20;2.35;;;9.80;99.90;;;;;;5105391;28;20495;-93
2023/12/31 09:29:54;;;;;;;3.47;2.53;;;9.60;99.90;;;;;;5091622;28;20463;-90
2023/12/31 09:32:20;;;;;;;4.00;2.30;;;9.60;99.90;;;;;;5106396;28;20401;-89
2023/12/31 09:34:46;;;;;;;3.33;1.70;;;9.50;99.90;;;;;;5090237;28;20404;-90
2023/12/31 09:37:18;;;;;;;4.30;2.50;;;9.50;99.90;;;;;;5090529;28;20416;-91
2023/12/31 09:39:44;;;;;;;3.17;2.00;;;9.60;99.90;;;;;;5106017;28;20442;-93
2023/12/31 09:42:12;;;;;;;3.27;2.33;;;9.90;99.90;;;;;;5108140;28;20436;-91
2023/12/31 09:44:42;;;;;;;4.45;3.25;;;9.50;99.90;;;;;;5089027;28;20926;-90
2023/12/31 09:47:09;;;;;;;3.35;2.20;;;9.50;99.90;;;;;;5113508;27;20399;-90
2023/12/31 09:49:36;;;;;;;3.08;2.75;;;9.50;99.90;;;;;;5109976;28;20855;-91
2023/12/31 09:52:03;;;;;;;3.03;2.40;;;9.40;99.90;;;;;;5111008;28;20395;-93
2023/12/31 09:54:31;;;;;;;3.40;3.07;;;9.40;99.90;;;;;;5110916;28;20406;-91
2023/12/31 09:56:58;;;;;;;6.00;3.30;;;9.30;99.90;;;;;;5110000;28;20409;-90
2023/12/31 09:59:28;;;;;;;3.33;3.03;;;9.50;99.90;;;;;;5111094;28;20391;-92
2023/12/31 10:01:57;;;;;;;3.53;2.70;;;9.30;99.90;;;;;;5112074;27;20409;-94
2023/12/31 10:04:24;;;;;;;3.53;3.17;;;9.30;99.90;;;;;;5132095;27;20393;-90
2023/12/31 10:06:50;;;;;;;4.38;2.90;;;9.30;99.90;;;;;;5129941;27;20425;-89
2023/12/31 10:09:21;;;;;;;4.10;2.97;;;9.40;99.90;;;;;;5133599;27;20826;-91
2023/12/31 10:11:47;;;;;;;5.53;3.10;;;9.70;99.90;;;;;;5135707;27;20419;-91
2023/12/31 10:14:13;;;;;;;5.43;3.80;;;9.40;99.90;;;;;;5134406;27;20754;-92
2023/12/31 10:16:46;;;;;;;4.68;3.55;;;9.50;99.90;;;;;;5135779;27;20931;-89
2023/12/31 10:19:12;;;;;;;3.70;3.30;;;9.40;99.90;;;;;;5134077;27;20401;-90
2023/12/31 10:21:39;;;;;;;4.85;3.83;;;9.30;99.90;;;;;;5135793;27;20794;-90
2023/12/31 10:24:05;;;;;;;4.55;3.72;;;9.50;99.90;;;;;;5134102;27;20457;-89
2023/12/31 10:26:31;;;;;;;4.18;3.78;;;9.40;99.90;;;;;;5128142;27;20414;-91
2023/12/31 10:28:57;;;;;;;3.90;3.47;;;9.50;99.90;;;;;;5116679;27;20463;-91
2023/12/31 10:31:24;;;;;;;4.60;3.20;;;9.50;99.90;;;;;;5133964;27;20396;-91
2023/12/31 10:33:50;;;;;;;5.20;3.00;;;9.70;99.90;;;;;;5135022;27;20396;-91
2023/12/31 10:36:22;;;;;;;3.33;2.53;;;9.50;99.90;;;;;;5133971;27;20709;-90
2023/12/31 10:38:49;;;;;;;3.33;2.45;;;9.80;99.90;;;;;;5152784;27;20396;-91
2023/12/31 10:41:20;;;;;;;3.65;2.60;;;10.20;99.90;;;;;;5133352;27;20465;-89
2023/12/31 10:43:50;;;;;;;3.45;3.15;;;9.60;99.90;;;;;;5134856;27;20393;-90
2023/12/31 10:46:20;;;;;;;3.65;3.05;;;9.70;99.90;;;;;;5134542;27;20421;-91
2023/12/31 10:48:55;;;;;;;4.30;3.90;;;9.70;99.90;;;;;;5117456;27;20799;-90
2023/12/31 10:51:26;;;;;;;3.60;2.42;;;9.90;99.90;;;;;;5109824;28;20420;-91
2023/12/31 10:54:07;;;;;;;3.53;2.87;;;9.80;99.90;;;;;;5108604;28;20797;-91
2023/12/31 10:56:34;;;;;;;4.28;3.00;;;9.80;99.90;;;;;;5114690;27;20398;-91
2023/12/31 10:59:01;;;;;;;3.95;3.17;;;9.90;99.90;;;;;;5113265;27;20735;-93
2023/12/31 11:01:27;;;;;;;4.07;3.50;;;10.30;99.90;;;;;;5113723;27;20407;-91
2023/12/31 11:03:58;;;;;;;5.68;4.80;;;9.80;99.90;;;;;;5113639;27;20746;-91
2023/12/31 11:06:26;;;;;;;9.70;8.70;;;9.80;99.90;;;;;;5111952;27;20426;-93
2023/12/31 11:08:53;;;;;;;8.05;6.88;;;9.90;99.90;;;;;;5113701;27;20463;-90
2023/12/31 11:11:20;;;;;;;7.83;5.57;;;9.60;99.90;;;;;;5112561;27;20466;-92
2023/12/31 11:13:53;;;;;;;5.20;3.83;;;9.70;99.90;;;;;;5114358;27;20485;-88
2023/12/31 11:16:40;;;;;;;1.67;0.70;;;9.30;99.90;;;;;;5112818;27;20398;-88
2023/12/31 11:19:32;;;;;;;2.30;1.00;;;9.20;99.90;;;;;;5130105;27;20789;-89
2023/12/31 11:22:41;;;;;;;2.88;1.00;;;9.10;99.90;;;;;;5112644;27;20460;-89
2023/12/31 11:25:06;;;;;;;2.60;0.60;;;8.80;99.90;;;;;;5058085;27;20430;-91
2023/12/31 11:27:34;;;;;;;2.10;0.50;;;8.60;99.90;;;;;;5150823;27;20427;-89
2023/12/31 11:30:01;;;;;;;1.70;0.60;;;8.50;99.90;;;;;;5133776;27;20393;-89
2023/12/31 11:32:27;;;;;;;1.63;0.30;;;8.40;99.90;;;;;;5132281;27;20389;-89
2023/12/31 11:34:54;;;;;;;2.45;0.60;;;8.50;99.90;;;;;;5134015;27;20408;-91
2023/12/31 11:37:21;;;;;;;2.83;1.20;;;8.30;99.90;;;;;;5132265;27;20886;-88
2023/12/31 11:39:52;;;;;;;2.80;0.88;;;8.50;99.90;;;;;;5133730;27;20442;-88
2023/12/31 11:42:19;;;;;;;2.40;0.70;;;8.30;99.90;;;;;;5133151;27;20393;-90
2023/12/31 11:44:46;;;;;;;3.67;0.70;;;8.30;99.90;;;;;;5150748;27;20510;-91
2023/12/31 11:47:22;;;;;;;3.53;0.70;;;8.30;99.90;;;;;;5134031;27;20823;-91
2023/12/31 11:50:13;;;;;;;3.05;0.70;;;8.30;99.90;;;;;;5132252;27;20489;-89
2023/12/31 11:52:42;;;;;;;2.88;0.65;;;8.30;99.90;;;;;;5116966;27;20477;-90
2023/12/31 11:55:13;;;;;;;3.37;0.83;;;8.30;99.90;;;;;;5131424;27;20411;-90
2023/12/31 11:57:40;;;;;;;2.58;0.70;;;8.40;99.90;;;;;;5133082;27;20405;-90
2023/12/31 12:00:08;;;;;;;4.30;1.45;;;8.60;99.90;;;;;;5125869;27;20399;-93
2023/12/31 12:02:34;;;;;;;15.65;12.48;;;8.50;99.90;;;;;;5111363;27;20441;-91
2023/12/31 12:05:02;;;;;;;18.95;17.00;;;8.70;99.90;;;;;;5113139;27;20462;-89
2023/12/31 12:07:29;;;;;;;3.92;2.40;;;8.80;99.90;;;;;;5111177;27;20391;-90
2023/12/31 12:09:54;;;;;;;3.65;1.85;;;9.40;99.90;;;;;;5129750;27;20468;-91
2023/12/31 12:12:22;;;;;;;3.20;1.40;;;9.80;99.90;;;;;;5111559;27;20395;-92
2023/12/31 12:14:51;;;;;;;2.05;0.63;;;10.10;99.90;;;;;;5112952;27;20420;-91
2023/12/31 12:17:17;;;;;;;2.05;0.50;;;10.40;99.90;;;;;;5112321;27;20410;-90
2023/12/31 12:19:43;;;;;;;2.00;0.50;;;10.10;99.90;;;;;;5111147;27;20410;-90
2023/12/31 12:22:08;;;;;;;2.40;0.50;;;10.50;99.90;;;;;;5129420;27;20403;-89
2023/12/31 12:24:34;;;;;;;1.53;0.40;;;10.80;99.90;;;;;;5109856;27;20430;-89
2023/12/31 12:27:01;;;;;;;1.63;0.52;;;10.40;99.90;;;;;;5112715;27;21034;-90
2023/12/31 12:29:28;;;;;;;2.50;0.55;;;10.20;99.90;;;;;;5110813;27;20406;-92
2023/12/31 12:31:54;;;;;;;1.40;0.43;;;10.00;99.90;;;;;;5111858;27;20398;-90
2023/12/31 12:34:20;;;;;;;2.15;0.50;;;9.80;99.90;;;;;;5111252;27;20402;-91
2023/12/31 12:36:52;;;;;;;1.88;0.50;;;9.60;99.90;;;;;;5111545;27;20410;-91
2023/12/31 12:39:22;;;;;;;1.63;0.40;;;9.60;99.90;;;;;;5111938;27;21248;-91
2023/12/31 12:41:49;;;;;;;2.05;0.70;;;9.50;99.90;;;;;;5110507;27;20395;-90
2023/12/31 12:44:17;;;;;;;2.10;0.82;;;9.50;99.90;;;;;;5111687;27;20399;-90
2023/12/31 12:46:44;;;;;;;2.10;0.85;;;9.40;99.90;;;;;;5110620;27;20395;-89
2023/12/31 12:49:11;;;;;;;7.68;6.35;;;9.70;99.90;;;;;;5126379;27;20407;-91
2023/12/31 12:51:38;;;;;;;2.95;1.10;;;9.50;99.90;;;;;;5132399;27;20748;-89
2023/12/31 12:54:05;;;;;;;3.25;1.50;;;9.60;99.90;;;;;;5113161;27;20447;-94
2023/12/31 12:56:31;;;;;;;2.80;1.60;;;9.70;99.90;;;;;;5111399;27;20434;-91